Time;durP1;ratioP1;P1;durP2;ratioP2;P2;SDS_P1;SDS_P2;PMS_P1;PMS_P2;Temp;Humidity;BMP_temperature;BMP_pressure;BME280_temperature;BME280_humidity;BME280_pressure;Samples;Min_cycle;Max_cycle;Signal;HPM_P1;HPM_P2
2022/01/21 00:00:23;;;;;;;;;6.00;5.00;;;;;8.71;54.96;103353.75;4962215;28;47368;-88
2022/01/21 00:02:49;;;;;;;;;8.00;8.00;;;;;7.60;55.17;103168.78;4980154;28;45508;-88
2022/01/21 00:05:15;;;;;;;;;8.00;5.33;;;;;8.66;55.11;103347.50;4980056;28;45488;-88
2022/01/21 00:07:41;;;;;;;;;6.00;6.00;;;;;8.18;55.06;103282.50;4980117;28;45584;-88
2022/01/21 00:10:07;;;;;;;;;5.67;5.00;;;;;8.17;55.44;103271.00;4979993;28;46058;-88
2022/01/21 00:12:34;;;;;;;;;11.00;7.33;;;;;7.94;55.41;103224.78;4961887;28;45525;-89
2022/01/21 00:15:00;;;;;;;;;7.33;6.00;;;;;8.20;55.35;103280.75;4962201;28;45933;-88
2022/01/21 00:17:26;;;;;;;;;8.33;6.33;;;;;8.11;55.08;103265.63;4962385;28;45554;-88
2022/01/21 00:30:04;;;;;;;;;9.33;6.00;;;;;8.17;55.40;103273.66;4979401;28;45427;-89
2022/01/21 00:30:48;;;;;;;;;5.67;5.33;;;;;8.50;55.40;103346.53;4979785;28;45688;-88
2022/01/21 00:33:14;;;;;;;;;5.00;5.00;;;;;8.26;55.20;103302.03;4962057;28;46111;-88
2022/01/21 00:35:39;;;;;;;;;6.33;6.00;;;;;8.14;55.37;103286.88;4961491;28;45339;-88
2022/01/21 00:38:04;;;;;;;;;6.67;6.33;;;;;7.86;55.62;103245.06;4980079;28;45516;-88
2022/01/21 00:40:32;;;;;;;;;8.00;6.33;;;;;7.86;55.69;103251.25;4977959;28;48224;-87
2022/01/21 00:45:32;;;;;;;;;5.67;5.67;;;;;7.80;55.93;103241.50;4979235;28;45369;-88
2022/01/21 00:47:57;;;;;;;;;7.33;6.00;;;;;7.80;55.97;103254.75;4979973;28;45425;-88
2022/01/21 00:50:23;;;;;;;;;5.00;5.00;;;;;8.25;56.33;103321.50;4961718;28;47217;-88
2022/01/21 00:52:48;;;;;;;;;4.00;4.00;;;;;7.97;56.49;103285.88;4979335;28;45382;-88
2022/01/21 00:55:13;;;;;;;;;5.00;5.00;;;;;8.15;56.50;103304.63;4978999;28;45405;-88
2022/01/21 00:57:39;;;;;;;;;5.50;5.00;;;;;8.21;56.31;103319.69;4977974;28;45564;-88
2022/01/21 01:00:08;;;;;;;;;6.67;6.67;;;;;7.70;56.14;103244.97;4961777;28;47190;-88
2022/01/21 01:02:33;;;;;;;;;7.00;4.00;;;;;8.06;55.98;103303.66;4979316;28;45501;-88
2022/01/21 01:04:59;;;;;;;;;8.33;6.33;;;;;8.12;56.40;103316.97;4979417;28;45429;-89
2022/01/21 01:07:25;;;;;;;;;6.00;5.00;;;;;7.76;56.68;103255.59;4961435;28;45471;-88
2022/01/21 01:09:53;;;;;;;;;5.00;4.00;;;;;7.75;56.59;103264.47;4961289;28;46327;-88
2022/01/21 01:12:54;;;;;;;;;7.00;7.00;;;;;7.67;56.57;103241.38;4977817;28;46127;-88
2022/01/21 01:20:33;;;;;;;;;8.00;6.33;;;;;8.02;56.33;103305.38;4978496;28;45712;-88
2022/01/21 01:23:08;;;;;;;;;11.00;11.00;;;;;7.74;56.32;103262.66;4961461;28;45270;-88
2022/01/21 01:28:17;;;;;;;;;9.33;7.67;;;;;8.01;56.32;103307.16;4979112;28;45429;-88
2022/01/21 01:30:43;;;;;;;;;11.00;5.67;;;;;7.73;56.40;103263.56;4978628;28;45412;-88
2022/01/21 01:33:11;;;;;;;;;7.00;6.00;;;;;7.53;56.32;103236.81;4961077;28;45434;-88
2022/01/21 01:35:38;;;;;;;;;6.00;5.67;;;;;7.73;56.84;103273.28;4961457;28;45334;-88
2022/01/21 01:40:46;;;;;;;;;10.00;6.67;;;;;7.70;56.60;103271.50;4978406;28;45262;-88
2022/01/21 01:51:00;;;;;;;;;8.33;4.67;;;;;7.89;56.90;103327.41;4978204;28;45353;-87
2022/01/21 01:53:27;;;;;;;;;5.67;5.67;;;;;7.83;57.14;103329.13;4959879;28;46261;-88
2022/01/21 01:55:53;;;;;;;;;7.00;6.00;;;;;7.61;56.91;103305.91;4978405;28;45588;-88
2022/01/21 01:58:19;;;;;;;;;6.67;5.00;;;;;7.40;57.06;103270.31;4977137;28;45579;-88
2022/01/21 02:00:44;;;;;;;;;6.33;5.33;;;;;7.31;56.96;103262.25;4960710;28;48327;-88
2022/01/21 02:03:14;;;;;;;;;5.33;5.33;;;;;7.75;57.15;103337.88;4960761;28;45913;-88
2022/01/21 02:05:41;;;;;;;;;11.67;7.33;;;;;7.54;56.80;103314.69;4978270;28;45405;-88
2022/01/21 02:08:10;;;;;;;;;8.33;5.33;;;;;7.72;57.02;103351.13;4978088;28;45608;-87
2022/01/21 02:10:36;;;;;;;;;4.67;3.00;;;;;7.67;57.39;103343.13;4959848;28;47281;-88
2022/01/21 02:13:17;;;;;;;;;6.67;6.00;;;;;7.67;57.30;103339.59;4960327;28;45347;-88
2022/01/21 02:15:43;;;;;;;;;11.33;6.33;;;;;7.08;56.90;103247.88;4974206;28;45407;-87
2022/01/21 02:23:36;;;;;;;;;8.33;7.00;;;;;7.18;57.38;103274.50;4977970;28;45322;-88
2022/01/21 02:26:02;;;;;;;;;5.00;5.00;;;;;7.45;57.60;103327.88;4960512;28;45405;-88
2022/01/21 02:28:28;;;;;;;;;6.00;5.00;;;;;7.36;57.44;103321.56;4961187;28;45393;-88
2022/01/21 02:30:58;;;;;;;;;4.67;4.67;;;;;7.06;57.56;103270.81;4960146;28;47165;-88
2022/01/21 02:33:25;;;;;;;;;4.67;4.00;;;;;7.16;57.60;103301.88;4977716;28;45422;-88
2022/01/21 02:35:51;;;;;;;;;10.33;6.67;;;;;7.25;57.55;103312.59;4960093;28;45447;-88
2022/01/21 02:38:17;;;;;;;;;5.00;5.00;;;;;6.95;57.44;103279.56;4960274;28;45279;-88
2022/01/21 02:40:43;;;;;;;;;6.33;4.33;;;;;6.89;57.79;103258.25;4977735;28;45666;-88
2022/01/21 02:43:10;;;;;;;;;8.67;5.33;;;;;7.34;57.70;103335.69;4959955;28;45329;-88
2022/01/21 02:45:37;;;;;;;;;6.00;4.00;;;;;6.95;57.71;103286.59;4957113;28;45513;-87
2022/01/21 02:48:04;;;;;;;;;7.00;4.67;;;;;6.98;57.82;103292.84;4941139;28;45385;-88
2022/01/21 02:50:30;;;;;;;;;6.67;6.67;;;;;6.75;58.00;103265.16;4940741;28;47207;-88
2022/01/21 02:53:08;;;;;;;;;5.33;4.00;;;;;6.80;58.11;103265.22;4950855;28;45370;-87
2022/01/21 02:55:33;;;;;;;;;7.00;5.33;;;;;6.69;57.79;103260.63;4960471;28;45270;-88
2022/01/21 02:57:59;;;;;;;;;7.00;4.00;;;;;7.04;58.36;103339.75;4960225;28;45397;-88
2022/01/21 03:00:25;;;;;;;;;7.00;5.33;;;;;6.63;58.10;103272.94;4977704;28;45671;-88
2022/01/21 03:02:50;;;;;;;;;10.00;8.00;;;;;6.79;58.16;103304.09;4976303;28;46177;-88
2022/01/21 03:05:16;;;;;;;;;9.67;6.00;;;;;6.47;57.78;103240.94;4977326;28;45302;-88
2022/01/21 03:07:42;;;;;;;;;7.00;7.00;;;;;6.97;58.02;103333.47;4960047;28;45520;-87
2022/01/21 03:10:08;;;;;;;;;6.67;6.00;;;;;6.15;58.02;103198.09;4976978;28;46414;-87
2022/01/21 03:12:34;;;;;;;;;5.33;5.33;;;;;6.53;58.40;103267.53;4977120;28;45416;-88
2022/01/21 03:14:59;;;;;;;;;5.00;5.00;;;;;6.98;58.58;103356.47;4976808;28;45444;-87
2022/01/21 03:17:24;;;;;;;;;5.67;5.67;;;;;6.47;58.11;103263.88;4960234;28;45452;-88
2022/01/21 03:19:49;;;;;;;;;8.67;8.67;;;;;6.74;58.47;103314.63;4977229;28;46721;-88
2022/01/21 03:22:15;;;;;;;;;11.67;7.33;;;;;6.28;58.53;103246.84;4979356;28;45362;-88
2022/01/21 03:24:40;;;;;;;;;5.00;5.00;;;;;6.66;58.43;103312.72;4963561;28;45252;-88
2022/01/21 03:27:06;;;;;;;;;10.67;5.00;;;;;6.89;58.73;103355.47;4980925;28;45363;-88
2022/01/21 03:29:31;;;;;;;;;7.00;6.00;;;;;6.45;58.94;103279.75;4963360;28;47227;-88
2022/01/21 03:31:57;;;;;;;;;9.33;5.67;;;;;6.43;58.90;103281.47;4980843;28;45732;-88
2022/01/21 03:34:22;;;;;;;;;6.67;5.00;;;;;6.86;58.93;103363.34;4980622;28;45418;-87
2022/01/21 03:36:49;;;;;;;;;7.67;6.00;;;;;6.61;59.10;103325.91;4980877;28;45536;-88
2022/01/21 03:39:15;;;;;;;;;10.33;8.33;;;;;6.34;59.59;103276.06;4980378;28;45460;-88
2022/01/21 03:41:40;;;;;;;;;9.67;7.00;;;;;6.58;59.11;103331.19;4962852;28;45889;-88
2022/01/21 03:44:05;;;;;;;;;8.67;6.00;;;;;6.66;59.46;103336.56;4980268;28;45382;-87
2022/01/21 03:46:31;;;;;;;;;8.67;5.67;;;;;6.81;59.29;103365.06;4981186;28;45310;-87
2022/01/21 03:48:56;;;;;;;;;10.33;5.00;;;;;6.47;59.74;103312.47;4980652;28;45591;-88
2022/01/21 03:51:22;;;;;;;;;10.33;6.33;;;;;6.34;59.43;103295.50;4979326;28;45474;-88
2022/01/21 03:53:47;;;;;;;;;10.00;8.33;;;;;6.49;59.40;103308.06;4963125;28;45348;-87
2022/01/21 03:56:14;;;;;;;;;10.67;8.33;;;;;6.67;59.60;103326.00;4997913;28;45408;-87
2022/01/21 03:58:40;;;;;;;;;8.00;6.33;;;;;6.55;59.52;103312.56;4982761;28;45495;-87
2022/01/21 04:01:05;;;;;;;;;6.67;5.33;;;;;6.44;59.43;103285.94;4979473;28;45316;-87
2022/01/21 04:03:31;;;;;;;;;6.00;6.00;;;;;6.85;59.28;103356.28;4980135;28;45300;-86
2022/01/21 04:05:56;;;;;;;;;7.67;5.00;;;;;6.88;59.65;103353.66;4962439;28;45591;-87
2022/01/21 04:08:22;;;;;;;;;7.67;5.00;;;;;6.75;59.44;103345.53;4962013;28;47284;-87
2022/01/21 04:10:48;;;;;;;;;5.33;5.33;;;;;6.49;59.56;103299.25;4980245;28;45238;-87
2022/01/21 04:13:18;;;;;;;;;5.33;2.67;;;;;6.86;59.65;103361.63;4980163;28;45219;-87
2022/01/21 04:15:47;;;;;;;;;7.00;6.00;;;;;6.43;59.52;103296.50;4980393;28;45368;-87
2022/01/21 04:18:16;;;;;;;;;10.33;6.33;;;;;6.90;59.34;103376.66;4978999;28;45480;-87
2022/01/21 04:20:42;;;;;;;;;6.67;6.00;;;;;6.91;59.74;103374.94;4962553;28;45395;-87
2022/01/21 04:23:09;;;;;;;;;5.00;5.00;;;;;6.90;59.50;103376.66;4979710;28;45486;-87
2022/01/21 04:25:34;;;;;;;;;8.00;5.67;;;;;6.92;59.75;103379.34;4980499;28;45336;-87
2022/01/21 04:28:00;;;;;;;;;7.00;7.00;;;;;6.95;59.61;103382.97;4961684;28;57614;-87
2022/01/21 04:30:26;;;;;;;;;12.67;4.33;;;;;6.93;59.65;103378.47;4979508;28;45434;-87
2022/01/21 04:32:51;;;;;;;;;11.33;6.67;;;;;6.74;59.63;103350.81;4961886;28;45482;-87
2022/01/21 04:35:17;;;;;;;;;8.33;6.00;;;;;6.58;59.42;103312.63;4979581;28;45476;-87
2022/01/21 04:37:55;;;;;;;;;7.33;5.33;;;;;6.47;59.62;103295.69;4979695;28;45594;-87
2022/01/21 04:40:24;;;;;;;;;5.33;5.33;;;;;7.03;59.18;103383.03;4979000;28;45411;-87
2022/01/21 04:48:18;;;;;;;;;5.67;5.67;;;;;6.64;59.32;103312.69;4979062;28;45461;-87
2022/01/21 04:51:12;;;;;;;;;7.00;6.00;;;;;6.83;59.31;103343.00;4962101;28;45423;-87
2022/01/21 04:53:38;;;;;;;;;5.67;5.67;;;;;6.82;59.30;103338.56;4979710;28;45435;-87
2022/01/21 04:56:04;;;;;;;;;7.00;6.00;;;;;6.72;59.71;103326.06;4994858;28;45544;-87
2022/01/21 04:58:30;;;;;;;;;7.00;5.33;;;;;6.99;59.46;103373.25;4979263;28;45415;-87
2022/01/21 05:00:55;;;;;;;;;7.33;5.33;;;;;6.96;59.44;103367.94;4979419;28;45354;-87
2022/01/21 05:03:20;;;;;;;;;7.00;6.00;;;;;6.44;59.49;103283.28;4961053;28;45760;-87
2022/01/21 05:05:46;;;;;;;;;8.67;5.33;;;;;6.90;59.45;103363.41;4979509;28;45919;-86
2022/01/21 05:08:22;;;;;;;;;8.67;8.00;;;;;6.48;59.26;103294.81;4961110;28;46912;-87
2022/01/21 05:10:47;;;;;;;;;11.00;7.00;;;;;6.93;59.63;103374.09;4979612;28;45261;-87
2022/01/21 05:13:16;;;;;;;;;7.33;7.00;;;;;6.69;59.57;103323.38;4979061;28;45389;-87
2022/01/21 05:15:58;;;;;;;;;9.00;6.67;;;;;6.48;59.67;103294.81;4961956;28;45480;-87
2022/01/21 05:18:24;;;;;;;;;8.33;8.33;;;;;6.20;59.77;103235.25;4978273;28;46468;-87
2022/01/21 05:20:49;;;;;;;;;11.00;11.00;;;;;7.02;59.64;103383.91;4978992;28;45749;-87
2022/01/21 05:23:15;;;;;;;;;7.00;7.00;;;;;6.62;59.37;103308.25;4978679;28;45661;-86
2022/01/21 05:25:40;;;;;;;;;5.00;5.00;;;;;6.73;59.70;103323.44;4961979;28;45554;-87
2022/01/21 05:28:06;;;;;;;;;5.00;3.67;;;;;7.16;59.41;103385.00;4978450;28;46678;-87
2022/01/21 05:30:31;;;;;;;;;1.33;0.00;;;;;6.98;59.30;103355.59;4978741;28;45329;-87
2022/01/21 05:32:56;;;;;;;;;8.33;6.00;;;;;7.20;59.35;103388.56;4977648;28;45477;-87
2022/01/21 05:35:22;;;;;;;;;5.67;5.33;;;;;6.81;59.02;103317.34;4978515;28;45591;-87
2022/01/21 05:37:47;;;;;;;;;4.00;3.67;;;;;7.11;58.97;103372.53;4978931;28;45578;-87
2022/01/21 05:40:14;;;;;;;;;4.00;4.00;;;;;6.63;59.48;103291.50;4961058;28;45339;-87
2022/01/21 05:42:40;;;;;;;;;6.00;4.67;;;;;6.86;59.72;103327.16;4978621;28;45413;-87
2022/01/21 05:47:34;;;;;;;;;8.33;6.00;;;;;7.05;58.86;103360.09;4978384;28;45340;-87
2022/01/21 05:49:59;;;;;;;;;8.33;6.00;;;;;6.76;59.08;103319.91;4978693;28;45210;-87
2022/01/21 05:52:39;;;;;;;;;7.33;5.00;;;;;6.88;58.67;103337.75;4960849;28;45277;-87
2022/01/21 05:55:04;;;;;;;;;4.33;4.33;;;;;7.12;59.11;103377.00;4987068;28;45389;-87
2022/01/21 05:57:30;;;;;;;;;5.00;4.00;;;;;7.28;59.11;103404.56;4967906;28;47974;-87
2022/01/21 05:59:58;;;;;;;;;5.00;5.00;;;;;6.97;58.75;103354.66;4975659;28;45357;-87
2022/01/21 06:02:23;;;;;;;;;4.33;4.33;;;;;6.86;58.71;103340.41;4977297;28;45339;-86
2022/01/21 06:04:50;;;;;;;;;5.00;4.00;;;;;7.23;58.72;103398.31;4960140;28;45280;-87
2022/01/21 06:07:16;;;;;;;;;7.00;6.00;;;;;7.28;58.30;103409.88;4977332;28;45772;-87
2022/01/21 06:09:43;;;;;;;;;5.00;4.00;;;;;7.04;58.99;103374.22;4960042;28;45425;-87
2022/01/21 06:12:09;;;;;;;;;6.67;5.33;;;;;6.77;58.33;103334.97;4977746;28;45392;-87
2022/01/21 06:14:36;;;;;;;;;6.00;5.67;;;;;6.96;58.42;103362.63;4977494;28;45417;-87
2022/01/21 06:17:02;;;;;;;;;7.00;5.67;;;;;6.58;58.52;103296.72;4977732;28;45602;-87
2022/01/21 06:19:27;;;;;;;;;9.67;6.33;;;;;7.19;58.92;103406.25;4976688;28;45461;-88
2022/01/21 06:21:52;;;;;;;;;8.00;5.00;;;;;6.91;58.49;103353.72;4977661;28;45429;-87
2022/01/21 06:24:17;;;;;;;;;5.00;3.00;;;;;7.12;58.58;103399.09;4977971;28;45218;-87
2022/01/21 06:26:44;;;;;;;;;6.33;3.33;;;;;6.95;58.80;103367.03;4976707;28;51342;-87
2022/01/21 06:29:09;;;;;;;;;7.67;5.67;;;;;6.80;58.36;103339.44;4957883;28;45874;-87
2022/01/21 06:31:34;;;;;;;;;7.33;5.67;;;;;7.29;58.54;103420.53;4976329;28;45322;-87
2022/01/21 06:34:00;;;;;;;;;11.33;9.33;;;;;6.92;58.61;103350.19;4976669;28;45339;-87
2022/01/21 06:36:25;;;;;;;;;8.67;5.00;;;;;7.16;58.73;103394.69;4976617;28;45476;-86
2022/01/21 06:38:51;;;;;;;;;8.00;5.00;;;;;7.37;58.31;103425.91;4976556;28;45364;-87
2022/01/21 06:41:18;;;;;;;;;11.00;3.67;;;;;6.70;58.61;103309.25;4977223;28;45461;-84
2022/01/21 06:43:43;;;;;;;;;5.00;3.67;;;;;6.65;58.49;103297.69;4959358;28;45538;-87
2022/01/21 06:46:10;;;;;;;;;5.67;4.33;;;;;7.40;58.30;103441.91;4958880;28;47396;-86
2022/01/21 06:48:35;;;;;;;;;6.33;5.00;;;;;6.81;58.65;103327.94;4960281;28;45426;-86
2022/01/21 06:51:00;;;;;;;;;7.67;6.00;;;;;7.21;58.35;103392.09;4977760;28;45283;-86
2022/01/21 06:53:26;;;;;;;;;7.67;6.67;;;;;6.93;58.51;103355.53;4960516;28;45386;-86
2022/01/21 06:55:51;;;;;;;;;8.67;5.67;;;;;6.79;58.55;103316.41;4960677;28;47899;-86
2022/01/21 06:58:16;;;;;;;;;6.00;5.00;;;;;7.29;58.32;103399.31;4982681;28;45341;-86
2022/01/21 07:00:42;;;;;;;;;5.00;5.00;;;;;7.13;58.18;103363.72;4966076;28;45550;-85
2022/01/21 07:03:07;;;;;;;;;7.33;5.00;;;;;7.54;58.40;103436.78;4984032;28;45353;-86
2022/01/21 07:05:32;;;;;;;;;4.33;4.00;;;;;7.02;58.14;103357.38;4984123;28;46501;-85
2022/01/21 07:07:59;;;;;;;;;5.67;4.00;;;;;7.45;58.23;103423.38;4982949;28;45449;-85
2022/01/21 07:10:25;;;;;;;;;5.00;5.00;;;;;7.59;57.84;103449.22;4966219;28;45291;-86
2022/01/21 07:12:50;;;;;;;;;7.33;6.00;;;;;7.47;57.81;103418.97;4964953;28;45481;-86
2022/01/21 07:15:18;;;;;;;;;7.33;6.33;;;;;7.44;58.21;103417.16;4965735;28;48129;-86
2022/01/21 07:17:44;;;;;;;;;6.33;5.00;;;;;7.49;58.05;103438.44;4983642;28;45487;-86
2022/01/21 07:20:10;;;;;;;;;7.00;7.00;;;;;7.65;58.14;103459.00;4966274;28;45327;-86
2022/01/21 07:22:36;;;;;;;;;6.33;5.33;;;;;7.61;58.46;103454.56;4983711;28;45529;-86
2022/01/21 07:25:02;;;;;;;;;8.33;5.33;;;;;7.67;58.09;103469.66;4982789;28;46692;-87
2022/01/21 07:27:28;;;;;;;;;5.67;5.67;;;;;7.61;57.90;103463.41;4983478;28;45507;-87
2022/01/21 07:29:53;;;;;;;;;8.00;6.00;;;;;7.50;58.17;103441.13;4983524;28;45500;-87
2022/01/21 07:32:19;;;;;;;;;12.33;8.67;;;;;7.42;58.03;103426.88;4984402;28;45415;-83
2022/01/21 07:34:44;;;;;;;;;18.33;13.00;;;;;7.18;58.00;103401.78;4983099;28;46448;-83
2022/01/21 07:37:09;;;;;;;;;7.00;7.00;;;;;7.49;57.60;103449.06;4983421;28;45416;-85
2022/01/21 07:39:35;;;;;;;;;9.33;6.67;;;;;7.64;58.14;103478.47;4984011;28;45672;-87
2022/01/21 07:42:00;;;;;;;;;5.33;5.33;;;;;7.32;57.77;103430.28;4965493;28;45470;-87
2022/01/21 07:44:25;;;;;;;;;72.25;55.50;;;;;7.48;57.73;103464.09;4965790;28;47898;-89
2022/01/21 07:46:51;;;;;;;;;17.00;9.67;;;;;7.60;58.54;103479.28;4983483;28;45673;-86
2022/01/21 07:49:17;;;;;;;;;15.33;14.67;;;;;7.18;58.00;103404.44;4983620;28;45626;-88
2022/01/21 07:51:43;;;;;;;;;16.00;12.33;;;;;7.12;58.53;103393.78;4966153;28;45456;-87
2022/01/21 07:54:09;;;;;;;;;15.00;9.67;;;;;7.27;58.17;103421.38;4981986;28;47387;-88
2022/01/21 07:56:35;;;;;;;;;14.00;14.00;;;;;7.68;58.33;103496.22;4964988;28;45523;-86
2022/01/21 07:59:04;;;;;;;;;14.33;11.00;;;;;7.18;58.08;103416.84;4965651;28;45512;-86
2022/01/21 08:01:30;;;;;;;;;15.67;12.33;;;;;7.72;58.42;103503.34;4958586;28;45637;-86
2022/01/21 08:03:55;;;;;;;;;13.33;10.67;;;;;7.68;58.08;103492.66;4981208;28;47890;-86
2022/01/21 08:06:21;;;;;;;;;7.00;7.00;;;;;7.33;57.98;103437.38;4965848;28;45416;-86
2022/01/21 08:08:46;;;;;;;;;9.00;7.00;;;;;7.66;57.86;103490.00;4979011;28;45458;-85
2022/01/21 08:11:12;;;;;;;;;18.67;12.67;;;;;7.78;58.00;103510.50;4979498;28;45382;-86
2022/01/21 08:13:37;;;;;;;;;10.67;9.00;;;;;7.80;57.48;103507.00;4980202;28;46431;-84
2022/01/21 08:16:02;;;;;;;;;13.00;11.33;;;;;7.40;58.05;103437.47;4980197;28;45330;-88
2022/01/21 08:18:28;;;;;;;;;11.67;10.67;;;;;7.79;57.49;103510.50;4978640;28;45389;-87
2022/01/21 08:20:54;;;;;;;;;10.33;8.00;;;;;7.71;57.80;103485.63;4960291;28;45484;-86
2022/01/21 08:23:19;;;;;;;;;13.33;9.00;;;;;7.37;57.89;103437.44;4979837;28;45412;-86
2022/01/21 08:25:45;;;;;;;;;7.33;7.33;;;;;7.57;58.06;103480.16;4979496;28;45335;-87
2022/01/21 08:28:10;;;;;;;;;12.33;12.33;;;;;7.58;58.18;103473.06;4980250;28;45448;-86
2022/01/21 08:30:36;;;;;;;;;10.67;10.33;;;;;7.37;58.16;103433.88;4978985;28;45603;-86
2022/01/21 08:33:03;;;;;;;;;11.00;10.33;;;;;7.38;58.23;103430.38;4980152;28;45438;-86
2022/01/21 08:35:28;;;;;;;;;11.00;11.00;;;;;7.36;57.99;103427.69;4962325;28;45354;-87
2022/01/21 08:37:54;;;;;;;;;15.33;14.67;;;;;7.85;58.16;103492.88;4978797;28;45440;-87
2022/01/21 08:40:21;;;;;;;;;26.33;25.33;;;;;7.95;58.04;103518.66;4979948;28;45680;-86
2022/01/21 08:42:46;;;;;;;;;19.67;16.33;;;;;7.95;57.80;103514.25;4961836;28;46540;-84
2022/01/21 08:45:12;;;;;;;;;25.33;18.67;;;;;7.28;57.79;103400.19;4978720;28;45534;-84
2022/01/21 08:47:40;;;;;;;;;27.67;23.67;;;;;7.59;57.49;103450.97;4979302;28;45487;-84
2022/01/21 08:50:09;;;;;;;;;22.00;22.00;;;;;7.86;57.67;103516.78;4978797;28;45251;-84
2022/01/21 08:52:37;;;;;;;;;26.33;21.33;;;;;7.80;57.90;103496.38;4978552;28;46140;-84
2022/01/21 08:55:13;;;;;;;;;26.33;20.67;;;;;7.95;57.80;103519.53;4978687;28;45472;-84
2022/01/21 08:57:42;;;;;;;;;17.00;14.33;;;;;7.99;57.76;103521.38;4961132;28;45401;-85
2022/01/21 09:00:12;;;;;;;;;19.00;18.00;;;;;7.99;58.10;103516.06;4960478;28;45769;-85
2022/01/21 09:02:38;;;;;;;;;20.67;20.67;;;;;7.74;57.91;103475.03;4977658;28;45503;-85
2022/01/21 09:05:04;;;;;;;;;16.33;15.00;;;;;8.05;57.73;103520.53;4978270;28;45424;-85
2022/01/21 09:07:29;;;;;;;;;24.33;19.33;;;;;7.96;57.54;103500.09;4977380;28;45595;-84
2022/01/21 09:09:55;;;;;;;;;18.33;17.00;;;;;7.98;57.94;103501.03;4977944;28;45532;-84
2022/01/21 09:12:20;;;;;;;;;19.33;19.33;;;;;8.14;57.80;103520.66;4976645;28;45571;-88
2022/01/21 09:14:46;;;;;;;;;20.00;18.00;;;;;7.29;57.79;103382.50;4960570;28;45781;-86
2022/01/21 09:17:12;;;;;;;;;17.67;16.33;;;;;8.00;57.58;103487.72;4976297;28;45548;-86
2022/01/21 09:19:37;;;;;;;;;17.67;15.67;;;;;7.97;57.69;103495.69;4977678;28;45334;-86
2022/01/21 09:22:03;;;;;;;;;14.33;11.33;;;;;8.09;58.16;103498.47;4960295;28;48097;-83
2022/01/21 09:24:30;;;;;;;;;15.33;12.67;;;;;8.22;57.68;103505.69;4959565;28;45309;-85
2022/01/21 09:26:55;;;;;;;;;14.00;13.67;;;;;8.01;57.16;103470.94;4977976;28;45502;-88
2022/01/21 09:29:20;;;;;;;;;16.33;14.67;;;;;7.79;57.86;103452.09;4976542;28;45425;-86
2022/01/21 09:31:46;;;;;;;;;17.00;13.67;;;;;8.15;57.59;103492.34;4953884;28;47223;-85
2022/01/21 09:34:12;;;;;;;;;11.00;10.67;;;;;7.74;58.20;103421.06;4959642;28;46193;-86
2022/01/21 09:36:37;;;;;;;;;14.67;13.67;;;;;8.45;57.60;103544.91;4977185;28;45523;-88
2022/01/21 09:39:04;;;;;;;;;15.67;11.67;;;;;8.06;57.83;103482.50;4977059;28;45412;-87
2022/01/21 09:41:30;;;;;;;;;15.33;12.33;;;;;8.25;58.40;103521.66;4977225;28;47265;-85
2022/01/21 09:43:56;;;;;;;;;12.00;10.00;;;;;8.22;58.07;103516.31;4959186;28;45721;-86
2022/01/21 09:46:31;;;;;;;;;18.33;14.67;;;;;8.22;57.72;103529.63;4958511;28;45429;-87
2022/01/21 09:49:07;;;;;;;;;12.00;12.00;;;;;8.39;58.18;103551.03;4951977;28;45580;-86
2022/01/21 09:51:35;;;;;;;;;74.25;61.25;;;;;7.53;58.15;103397.81;4959829;28;48128;-86
2022/01/21 09:54:02;;;;;;;;;5.00;2.67;;;;;8.60;57.98;103563.69;4977616;28;45481;-86
2022/01/21 09:56:29;;;;;;;;;18.67;16.33;;;;;8.43;57.55;103547.59;4978070;28;45524;-87
2022/01/21 09:58:55;;;;;;;;;14.00;12.33;;;;;7.42;57.67;103371.16;4977052;28;45503;-86
2022/01/21 10:01:21;;;;;;;;;19.33;17.00;;;;;7.98;57.67;103450.56;4959455;28;48075;-86
2022/01/21 10:03:49;;;;;;;;;18.33;18.33;;;;;7.64;57.44;103401.50;4959833;28;45326;-85
2022/01/21 10:06:15;;;;;;;;;18.00;13.33;;;;;7.81;57.81;103428.22;4971386;28;45239;-85
2022/01/21 10:08:44;;;;;;;;;14.00;14.00;;;;;7.78;57.79;103436.16;4977651;28;45649;-85
2022/01/21 10:11:10;;;;;;;;;19.33;16.67;;;;;8.65;57.57;103585.91;4959424;28;47234;-87
2022/01/21 10:13:36;;;;;;;;;21.00;19.00;;;;;8.64;57.74;103583.25;4976591;28;45461;-85
2022/01/21 10:16:04;;;;;;;;;21.33;15.33;;;;;8.66;57.94;103574.41;4976138;28;45560;-86
2022/01/21 10:18:30;;;;;;;;;16.33;16.33;;;;;7.91;57.45;103440.72;4977196;28;45172;-87
2022/01/21 10:21:06;;;;;;;;;19.67;17.33;;;;;8.69;57.42;103578.88;4975887;28;46522;-86
2022/01/21 10:23:35;;;;;;;;;18.67;16.67;;;;;7.95;57.34;103452.28;4973299;28;45773;-87
2022/01/21 10:26:01;;;;;;;;;17.67;15.00;;;;;8.70;57.80;103580.63;4958324;28;45491;-86
2022/01/21 10:28:27;;;;;;;;;21.33;16.00;;;;;8.42;58.58;103532.50;4975371;28;45326;-86
2022/01/21 10:31:24;;;;;;;;;20.33;18.00;;;;;7.25;58.01;103344.41;4974949;28;46297;-86
2022/01/21 10:33:53;;;;;;;;;18.33;16.33;;;;;8.77;58.20;103587.78;4955983;28;45391;-86
2022/01/21 10:36:34;;;;;;;;;20.00;18.00;;;;;7.36;58.18;103337.47;4974892;28;45657;-86
2022/01/21 10:39:10;;;;;;;;;19.67;15.33;;;;;8.75;58.19;103554.09;4976290;28;45695;-89
2022/01/21 10:41:43;;;;;;;;;15.00;15.00;;;;;8.88;57.94;103578.16;4959805;28;48139;-88
2022/01/21 10:44:17;;;;;;;;;19.00;14.33;;;;;8.03;57.70;103418.72;4957400;28;45622;-89
2022/01/21 10:47:01;;;;;;;;;18.33;16.33;;;;;8.68;57.49;103538.94;4976277;28;45476;-89
2022/01/21 10:49:26;;;;;;;;;22.67;21.00;;;;;7.97;57.69;103410.69;4976125;28;45667;-89
2022/01/21 10:51:52;;;;;;;;;22.00;18.00;;;;;7.85;57.79;103384.91;4975544;28;46435;-88
2022/01/21 10:54:26;;;;;;;;;21.00;14.33;;;;;8.28;57.41;103459.69;4953424;28;46127;-89
2022/01/21 10:57:17;;;;;;;;;21.67;17.33;;;;;9.07;57.43;103568.56;4976344;28;45464;-89
2022/01/21 10:59:54;;;;;;;;;21.67;18.33;;;;;8.92;57.09;103535.59;4959341;28;45439;-89
2022/01/21 11:02:48;;;;;;;;;20.00;17.67;;;;;9.09;56.88;103561.47;4958413;28;47952;-88
2022/01/21 11:05:40;;;;;;;;;22.00;20.33;;;;;7.83;57.82;103352.13;4972197;28;45441;-89
2022/01/21 11:08:10;;;;;;;;;18.67;17.33;;;;;8.85;57.59;103529.38;4975373;28;45531;-89
2022/01/21 11:10:47;;;;;;;;;21.00;18.67;;;;;9.20;57.39;103565.97;4958589;28;45248;-89
2022/01/21 11:13:13;;;;;;;;;20.33;18.67;;;;;9.11;57.40;103534.91;4971445;28;45377;-89
2022/01/21 11:15:44;;;;;;;;;16.00;12.67;;;;;7.83;56.77;103299.91;4976215;28;45432;-88
2022/01/21 11:18:13;;;;;;;;;30.00;27.67;;;;;9.10;56.57;103522.44;4975453;28;45593;-89
2022/01/21 11:20:41;;;;;;;;;12.00;11.00;;;;;8.22;56.75;103356.03;4959041;28;45344;-89
2022/01/21 11:23:10;;;;;;;;;14.67;14.67;;;;;8.50;56.46;103394.38;4955009;28;47346;-89
2022/01/21 11:25:54;;;;;;;;;11.67;11.67;;;;;8.09;56.35;103335.56;4957149;28;45513;-87
2022/01/21 11:28:49;;;;;;;;;14.67;12.67;;;;;9.56;57.05;103564.47;4957710;28;45516;-90
2022/01/21 11:31:19;;;;;;;;;18.67;11.33;;;;;8.25;56.12;103348.97;4959794;28;45447;-86
2022/01/21 11:33:45;;;;;;;;;12.33;10.67;;;;;8.75;56.52;103430.00;4976538;28;45822;-88
2022/01/21 11:36:19;;;;;;;;;9.00;9.00;;;;;9.08;56.08;103465.69;4958763;28;45453;-91
2022/01/21 11:38:46;;;;;;;;;13.67;9.67;;;;;9.13;55.72;103473.69;4956925;28;45379;-85
2022/01/21 11:41:14;;;;;;;;;10.33;9.00;;;;;9.71;56.19;103552.09;4956423;28;45326;-83
2022/01/21 11:43:47;;;;;;;;;12.00;11.33;;;;;8.77;55.92;103393.66;4974131;28;46089;-84
2022/01/21 11:46:39;;;;;;;;;12.00;10.00;;;;;9.75;56.50;103554.81;4971994;28;45832;-83
2022/01/21 11:49:09;;;;;;;;;60.25;47.25;;;;;9.78;55.97;103552.16;4978958;28;45454;-83
2022/01/21 11:51:37;;;;;;;;;13.67;12.00;;;;;8.86;56.23;103390.19;4978317;28;45430;-88
2022/01/21 11:54:13;;;;;;;;;11.00;9.00;;;;;9.27;55.83;103435.66;4959582;28;48230;-83
2022/01/21 12:00:16;;;;;;;;;10.33;8.33;;;;;10.00;55.34;103559.38;4978103;28;45408;-83
2022/01/21 12:02:50;;;;;;;;;15.67;12.00;;;;;10.09;55.27;103555.81;4960466;28;45535;-85
2022/01/21 12:05:25;;;;;;;;;11.33;10.00;;;;;9.69;55.26;103471.34;4978478;28;48452;-85
2022/01/21 12:07:51;;;;;;;;;11.33;11.00;;;;;8.84;54.66;103318.34;4977535;28;45425;-84
2022/01/21 12:10:22;;;;;;;;;17.00;14.00;;;;;10.24;55.54;103545.22;4978277;28;45482;-84
2022/01/21 12:12:53;;;;;;;;;17.67;15.00;;;;;10.26;55.23;103538.13;4978490;28;45470;-84
2022/01/21 12:18:58;;;;;;;;;12.00;9.67;;;;;9.14;54.75;103330.03;4977397;28;45614;-85